createdAt,value
2023-04-23T00:02:40.174Z,100331.55
2023-04-23T00:06:07.982Z,100331.51
2023-04-23T00:09:32.386Z,100329.55
2023-04-23T00:12:59.346Z,100328.88
2023-04-23T00:16:27.096Z,100328.70
2023-04-23T00:19:51.412Z,100330.07
2023-04-23T00:23:19.260Z,100331.09
2023-04-23T00:26:44.870Z,100332.82
2023-04-23T00:30:12.910Z,100333.36
2023-04-23T00:33:40.967Z,100334.82
2023-04-23T00:36:49.901Z,100337.07
2023-04-23T00:40:17.636Z,100331.02
2023-04-23T00:43:45.294Z,100332.14
2023-04-23T00:46:35.184Z,100334.30
2023-04-23T00:49:45.110Z,100331.15
2023-04-23T00:53:12.917Z,100328.70
2023-04-23T00:56:21.791Z,100328.98
2023-04-23T00:59:30.812Z,100328.18
2023-04-23T01:02:46.553Z,100330.50
2023-04-23T01:06:14.311Z,100331.05
2023-04-23T01:09:06.514Z,100328.65
2023-04-23T01:12:31.076Z,100328.98
2023-04-23T01:15:56.958Z,100333.27
2023-04-23T01:19:21.864Z,100336.65
2023-04-23T01:22:45.265Z,100338.89
2023-04-23T01:26:12.992Z,100343.27
2023-04-23T01:29:41.041Z,100338.52
2023-04-23T01:33:05.192Z,100342.27
2023-04-23T01:36:02.685Z,100342.55
2023-04-23T01:38:54.411Z,100343.20
2023-04-23T01:42:06.211Z,100344.36
2023-04-23T01:45:34.272Z,100345.77
2023-04-23T01:48:28.431Z,100343.05
2023-04-23T01:51:20.514Z,100343.91
2023-04-23T01:54:19.132Z,100342.13
2023-04-23T01:57:21.857Z,100341.70
2023-04-23T02:00:12.829Z,100343.98
2023-04-23T02:03:12.520Z,100338.29
2023-04-23T02:06:40.203Z,100341.89
2023-04-23T02:09:52.919Z,100341.02
2023-04-23T02:12:43.967Z,100345.56
2023-04-23T02:15:59.299Z,100344.74
2023-04-23T02:19:04.985Z,100341.80
2023-04-23T02:22:13.807Z,100338.59
2023-04-23T02:25:23.059Z,100338.77
2023-04-23T02:28:35.015Z,100338.23
2023-04-23T02:31:25.729Z,100338.80
2023-04-23T02:34:34.231Z,100334.44
2023-04-23T02:37:40.877Z,100336.95
2023-04-23T02:40:56.497Z,100335.56
2023-04-23T02:44:11.984Z,100343.70
2023-04-23T02:47:07.866Z,100341.17
2023-04-23T02:50:17.928Z,100339.64
2023-04-23T02:53:45.813Z,100339.74
2023-04-23T02:56:51.811Z,100338.69
2023-04-23T02:59:40.860Z,100333.11
2023-04-23T03:02:55.973Z,100333.66
2023-04-23T03:06:04.820Z,100331.07
2023-04-23T03:08:56.502Z,100333.50
2023-04-23T03:12:20.116Z,100334.34
2023-04-23T03:15:29.828Z,100332.29
2023-04-23T03:18:57.791Z,100335.81
2023-04-23T03:21:50.004Z,100336.60
2023-04-23T03:24:48.213Z,100333.83
2023-04-23T03:28:12.398Z,100335.70
2023-04-23T03:31:40.515Z,100334.45
2023-04-23T03:34:49.441Z,100333.52
2023-04-23T03:37:39.011Z,100329.70
2023-04-23T03:41:06.971Z,100331.73
2023-04-23T03:44:17.007Z,100328.23
2023-04-23T03:47:32.891Z,100333.33
2023-04-23T03:50:56.324Z,100331.35
2023-04-23T03:54:23.983Z,100333.79
2023-04-23T03:57:27.529Z,100332.70
2023-04-23T04:00:45.061Z,100331.55
2023-04-23T04:03:53.377Z,100335.45
2023-04-23T04:06:41.981Z,100336.16
2023-04-23T04:09:46.743Z,100335.84
2023-04-23T04:13:14.582Z,100335.77
2023-04-23T04:16:42.218Z,100335.15
2023-04-23T04:20:09.931Z,100338.45
2023-04-23T04:23:19.052Z,100340.20
2023-04-23T04:26:46.861Z,100342.29
2023-04-23T04:30:03.540Z,100341.64
2023-04-23T04:32:52.743Z,100342.42
2023-04-23T04:35:56.626Z,100348.23
2023-04-23T04:39:08.508Z,100349.85
2023-04-23T04:41:59.080Z,100350.91
2023-04-23T04:45:06.833Z,100352.32
2023-04-23T04:48:26.833Z,100359.41
2023-04-23T04:51:36.721Z,100361.30
2023-04-23T04:54:38.215Z,100361.73
2023-04-23T04:58:06.117Z,100365.08
2023-04-23T05:01:21.825Z,100357.27
2023-04-23T05:04:37.489Z,100358.84
2023-04-23T05:07:47.486Z,100357.96
2023-04-23T05:10:56.365Z,100357.27
2023-04-23T05:13:35.012Z,100360.63
2023-04-23T05:16:48.178Z,100359.86
2023-04-23T05:19:57.160Z,100358.45
2023-04-23T05:23:25.229Z,100361.20
2023-04-23T05:26:53.118Z,100362.52
2023-04-23T05:30:21.022Z,100364.12
2023-04-23T05:33:10.931Z,100365.29
2023-04-23T05:36:01.903Z,100366.19
2023-04-23T05:39:13.639Z,100367.48
2023-04-23T05:42:41.606Z,100368.14
2023-04-23T05:46:09.461Z,100369.52
2023-04-23T05:48:58.562Z,100366.82
2023-04-23T05:52:22.260Z,100366.13
2023-04-23T05:55:30.817Z,100367.86
2023-04-23T05:58:54.406Z,100364.71
2023-04-23T06:01:22.946Z,100365.82
2023-04-23T06:04:34.889Z,100368.70
2023-04-23T06:07:58.391Z,100370.11
2023-04-23T06:11:06.500Z,100368.04
2023-04-23T06:14:34.358Z,100364.43
2023-04-23T06:17:43.500Z,100363.89
2023-04-23T06:21:11.432Z,100361.29
2023-04-23T06:24:35.158Z,100363.21
2023-04-23T06:27:07.744Z,100360.45
2023-04-23T06:30:19.443Z,100361.60
2023-04-23T06:33:28.068Z,100364.89
2023-04-23T06:36:31.434Z,100365.77
2023-04-23T06:39:39.346Z,100357.86
2023-04-23T06:42:28.644Z,100359.41
2023-04-23T06:45:57.012Z,100357.73
2023-04-23T06:49:02.955Z,100362.09
2023-04-23T06:52:11.978Z,100357.13
2023-04-23T06:55:20.537Z,100357.30
2023-04-23T06:58:48.242Z,100354.23
2023-04-23T07:02:16.217Z,100353.88
2023-04-23T07:05:47.323Z,100355.44
2023-04-23T07:09:03.047Z,100352.37
2023-04-23T07:12:17.118Z,100349.78
2023-04-23T07:15:02.422Z,100352.12
2023-04-23T07:18:30.202Z,100353.44
2023-04-23T07:21:38.162Z,100350.43
2023-04-23T07:24:29.115Z,100354.11
2023-04-23T07:27:17.912Z,100352.67
2023-04-23T07:30:27.654Z,100356.21
2023-04-23T07:33:17.097Z,100354.58
2023-04-23T07:36:25.845Z,100352.77
2023-04-23T07:39:38.004Z,100353.83
2023-04-23T07:43:05.785Z,100354.54
2023-04-23T07:46:34.040Z,100351.64
2023-04-23T07:49:43.168Z,100351.69
2023-04-23T07:53:10.826Z,100353.60
2023-04-23T07:56:39.247Z,100347.48
2023-04-23T08:00:06.862Z,100351.05
2023-04-23T08:03:35.211Z,100348.91
2023-04-23T08:06:03.422Z,100352.11
2023-04-23T08:09:13.118Z,100356.80
2023-04-23T08:11:43.808Z,100353.34
2023-04-23T08:14:32.638Z,100357.20
2023-04-23T08:17:40.589Z,100353.46
2023-04-23T08:20:49.370Z,100355.20
2023-04-23T08:23:37.376Z,100349.25
2023-04-23T08:26:45.484Z,100354.88
2023-04-23T08:29:16.151Z,100352.27
2023-04-23T08:31:46.913Z,100348.17
2023-04-23T08:34:35.974Z,100351.34
2023-04-23T08:37:30.248Z,100344.59
2023-04-23T08:40:30.599Z,100348.42
2023-04-23T08:43:58.809Z,100346.27
2023-04-23T08:46:51.864Z,100344.22
2023-04-23T08:49:59.822Z,100344.81
2023-04-23T08:52:51.664Z,100342.26
2023-04-23T08:55:40.331Z,100341.12
2023-04-23T08:58:28.667Z,100336.61
2023-04-23T09:00:57.524Z,100337.54
2023-04-23T09:03:53.613Z,100338.67
2023-04-23T09:07:27.053Z,100328.83
2023-04-23T09:10:40.935Z,100332.64
2023-04-23T09:14:06.087Z,100327.50
2023-04-23T09:17:42.618Z,100322.79
2023-04-23T09:20:34.650Z,100325.16
2023-04-23T09:23:35.013Z,100325.56
2023-04-23T09:27:06.668Z,100326.05
2023-04-23T09:30:04.955Z,100324.29
2023-04-23T09:33:13.332Z,100318.23
2023-04-23T09:36:41.506Z,100313.17
2023-04-23T09:39:49.835Z,100311.95
2023-04-23T09:43:14.761Z,100311.08
2023-04-23T09:46:34.712Z,100308.06
2023-04-23T09:49:02.998Z,100306.98
2023-04-23T09:52:12.257Z,100303.14
2023-04-23T09:55:22.776Z,100297.15
2023-04-23T09:57:54.605Z,100293.00
2023-04-23T10:01:03.819Z,100290.02
2023-04-23T10:03:47.390Z,100288.38
2023-04-23T10:06:57.999Z,100286.07
2023-04-23T10:10:19.900Z,100284.91
2023-04-23T10:13:29.164Z,100281.19
2023-04-23T10:16:46.471Z,100280.13
2023-04-23T10:20:07.757Z,100277.09
2023-04-23T10:23:35.408Z,100277.13
2023-04-23T10:27:03.458Z,100271.34
2023-04-23T10:30:31.812Z,100271.46
2023-04-23T10:33:49.431Z,100266.22
2023-04-23T10:36:35.719Z,100261.66
2023-04-23T10:39:06.351Z,100257.63
2023-04-23T10:42:17.906Z,100253.66
2023-04-23T10:44:59.437Z,100242.99
2023-04-23T10:47:45.110Z,100242.11
2023-04-23T10:51:28.437Z,100237.31
2023-04-23T10:54:09.493Z,100231.50
2023-04-23T10:56:59.440Z,100226.84
2023-04-23T10:59:28.393Z,100230.75
2023-04-23T11:02:36.921Z,100226.31
2023-04-23T11:06:04.683Z,100220.23
2023-04-23T11:08:53.200Z,100210.55
2023-04-23T11:11:42.049Z,100211.98
2023-04-23T11:14:11.021Z,100216.08
2023-04-23T11:16:39.711Z,100218.66
2023-04-23T11:19:28.032Z,100212.80
2023-04-23T11:21:57.585Z,100211.86
2023-04-23T11:24:25.565Z,100207.58
2023-04-23T11:26:54.658Z,100204.64
2023-04-23T11:29:23.671Z,100200.85
2023-04-23T11:32:03.694Z,100200.78
2023-04-23T11:34:33.698Z,100203.52
2023-04-23T11:37:02.412Z,100199.64
2023-04-23T11:39:32.453Z,100189.68
2023-04-23T11:42:01.075Z,100190.30
2023-04-23T11:44:29.996Z,100189.52
2023-04-23T11:47:18.647Z,100186.09
2023-04-23T11:49:47.371Z,100186.86
2023-04-23T11:52:16.419Z,100179.58
2023-04-23T11:55:01.008Z,100175.48
2023-04-23T11:57:29.099Z,100174.98
2023-04-23T11:59:57.525Z,100171.63
2023-04-23T12:02:26.765Z,100165.80
2023-04-23T12:04:56.274Z,100162.81
2023-04-23T12:07:26.874Z,100157.52
2023-04-23T12:09:56.627Z,100154.23
2023-04-23T12:12:24.914Z,100151.62
2023-04-23T12:14:58.299Z,100148.81
2023-04-23T12:18:14.450Z,100144.57
2023-04-23T12:20:46.299Z,100141.08
2023-04-23T12:23:14.167Z,100140.70
2023-04-23T12:25:43.156Z,100143.15
2023-04-23T12:28:12.117Z,100144.26
2023-04-23T12:30:41.092Z,100134.05
2023-04-23T12:33:24.189Z,100129.15
2023-04-23T12:35:56.672Z,100126.96
2023-04-23T12:38:25.344Z,100122.44
2023-04-23T12:41:13.967Z,100114.65
2023-04-23T12:43:50.916Z,100114.83
2023-04-23T12:46:19.132Z,100117.42
2023-04-23T12:48:48.497Z,100116.46
2023-04-23T12:51:17.765Z,100111.47
2023-04-23T12:53:46.953Z,100106.95
2023-04-23T12:56:35.137Z,100106.31
2023-04-23T12:59:04.502Z,100102.16
2023-04-23T13:02:01.485Z,100103.77
2023-04-23T13:04:52.810Z,100102.38
2023-04-23T13:07:41.024Z,100102.62
2023-04-23T13:10:28.920Z,100102.98
2023-04-23T13:13:18.057Z,100092.11
2023-04-23T13:16:15.560Z,100088.08
2023-04-23T13:19:04.392Z,100086.59
2023-04-23T13:21:54.153Z,100083.19
2023-04-23T13:24:24.968Z,100087.39
2023-04-23T13:26:56.756Z,100082.04
2023-04-23T13:29:40.986Z,100078.96
2023-04-23T13:32:09.933Z,100082.14
2023-04-23T13:34:38.440Z,100071.80
2023-04-23T13:37:28.202Z,100071.09
2023-04-23T13:40:36.320Z,100072.14
2023-04-23T13:43:05.110Z,100069.61
2023-04-23T13:45:53.755Z,100064.59
2023-04-23T13:49:01.849Z,100054.08
2023-04-23T13:51:47.560Z,100056.80
2023-04-23T13:54:17.046Z,100054.64
2023-04-23T13:57:05.300Z,100054.35
2023-04-23T13:59:36.052Z,100057.21
2023-04-23T14:02:08.823Z,100051.40
2023-04-23T14:04:38.711Z,100049.77
2023-04-23T14:08:06.755Z,100050.95
2023-04-23T14:11:15.179Z,100046.52
2023-04-23T14:14:43.195Z,100043.59
2023-04-23T14:17:47.573Z,100042.92
2023-04-23T14:20:59.500Z,100038.02
2023-04-23T14:23:48.062Z,100031.29
2023-04-23T14:26:19.365Z,100029.49
2023-04-23T14:29:32.782Z,100026.50
2023-04-23T14:32:21.143Z,100024.02
2023-04-23T14:35:09.757Z,100023.65
2023-04-23T14:37:38.113Z,100020.84
2023-04-23T14:40:26.419Z,100015.61
2023-04-23T14:42:57.011Z,100015.45
2023-04-23T14:45:28.317Z,100017.11
2023-04-23T14:47:56.361Z,100014.15
2023-04-23T14:50:24.322Z,100016.50
2023-04-23T14:52:52.283Z,100010.74
2023-04-23T14:55:20.167Z,100011.48
2023-04-23T14:57:48.548Z,100009.15
2023-04-23T15:00:16.480Z,100006.55
2023-04-23T15:02:45.279Z,100006.20
2023-04-23T15:05:13.260Z,100003.75
2023-04-23T15:07:41.818Z,100004.75
2023-04-23T15:10:11.126Z,100002.86
2023-04-23T15:12:39.685Z,100002.32
2023-04-23T15:15:08.167Z,100007.92
2023-04-23T15:17:36.582Z,100008.38
2023-04-23T15:20:06.153Z,100004.50
2023-04-23T15:22:33.902Z,100000.13
2023-04-23T15:25:01.715Z,100003.15
2023-04-23T15:27:29.661Z,100001.20
2023-04-23T15:29:57.983Z,99997.91
2023-04-23T15:32:29.187Z,99995.82
2023-04-23T15:35:19.679Z,99987.89
2023-04-23T15:37:48.335Z,99987.60
2023-04-23T15:40:16.280Z,99980.52
2023-04-23T15:42:45.069Z,99981.34
2023-04-23T15:45:13.580Z,99985.81
2023-04-23T15:47:43.226Z,99975.45
2023-04-23T15:50:11.365Z,99975.77
2023-04-23T15:52:39.380Z,99980.06
2023-04-23T15:55:08.577Z,99975.52
2023-04-23T15:57:37.764Z,99977.55
2023-04-23T16:00:06.011Z,99974.44
2023-04-23T16:02:40.682Z,99971.41
2023-04-23T16:05:09.621Z,99967.86
2023-04-23T16:07:38.196Z,99971.89
2023-04-23T16:10:27.485Z,99971.90
2023-04-23T16:12:57.975Z,99970.50
2023-04-23T16:15:26.125Z,99968.95
2023-04-23T16:17:54.249Z,99971.20
2023-04-23T16:20:23.461Z,99973.84
2023-04-23T16:22:52.663Z,99970.98
2023-04-23T16:25:20.683Z,99969.44
2023-04-23T16:27:48.681Z,99966.52
2023-04-23T16:30:17.617Z,99964.27
2023-04-23T16:32:47.603Z,99962.17
2023-04-23T16:35:15.479Z,99965.33
2023-04-23T16:37:44.577Z,99964.09
2023-04-23T16:40:16.165Z,99960.66
2023-04-23T16:43:20.461Z,99958.64
2023-04-23T16:45:48.523Z,99959.67
2023-04-23T16:48:20.262Z,99960.54
2023-04-23T16:50:49.322Z,99961.11
2023-04-23T16:53:17.697Z,99959.15
2023-04-23T16:55:46.740Z,99960.78
2023-04-23T16:59:14.596Z,99954.61
2023-04-23T17:02:22.501Z,99956.96
2023-04-23T17:05:50.267Z,99955.73
2023-04-23T17:09:18.117Z,99959.06
2023-04-23T17:12:45.729Z,99961.88
2023-04-23T17:16:13.641Z,99956.05
2023-04-23T17:19:01.300Z,99957.23
2023-04-23T17:22:30.838Z,99961.98
2023-04-23T17:25:58.921Z,99956.48
2023-04-23T17:29:07.819Z,99961.48
2023-04-23T17:31:37.694Z,99962.84
2023-04-23T17:34:44.589Z,99964.11
2023-04-23T17:38:12.354Z,99964.02
2023-04-23T17:40:42.366Z,99964.83
2023-04-23T17:44:10.700Z,99969.13
2023-04-23T17:47:38.767Z,99966.71
2023-04-23T17:50:47.807Z,99969.19
2023-04-23T17:53:16.784Z,99972.11
2023-04-23T17:56:25.040Z,99970.51
2023-04-23T17:59:18.813Z,99970.80
2023-04-23T18:02:07.953Z,99972.44
2023-04-23T18:05:35.966Z,99971.21
2023-04-23T18:08:04.574Z,99972.15
2023-04-23T18:10:57.267Z,99974.19
2023-04-23T18:14:25.211Z,99976.79
2023-04-23T18:17:30.027Z,99977.36
2023-04-23T18:20:57.948Z,99980.05
2023-04-23T18:24:25.918Z,99985.19
2023-04-23T18:27:34.396Z,99983.04
2023-04-23T18:31:02.285Z,99988.21
2023-04-23T18:33:52.170Z,99992.03
2023-04-23T18:37:02.238Z,99996.73
2023-04-23T18:40:13.993Z,99998.14
2023-04-23T18:43:41.978Z,100001.38
2023-04-23T18:47:10.007Z,100002.86
2023-04-23T18:50:25.344Z,100008.45
2023-04-23T18:53:20.327Z,100007.18
2023-04-23T18:56:28.466Z,100009.66
2023-04-23T18:59:56.445Z,100011.27
2023-04-23T19:02:44.509Z,100010.95
2023-04-23T19:06:12.284Z,100013.06
2023-04-23T19:09:20.235Z,100008.02
2023-04-23T19:12:29.298Z,100008.95
2023-04-23T19:15:18.629Z,100008.31
2023-04-23T19:18:46.335Z,100010.09
2023-04-23T19:21:14.188Z,100012.07
2023-04-23T19:24:02.963Z,100012.27
2023-04-23T19:26:50.785Z,100014.91
2023-04-23T19:30:07.431Z,100011.98
2023-04-23T19:33:22.916Z,100012.94
2023-04-23T19:36:30.816Z,100011.20
2023-04-23T19:39:38.797Z,100013.31
2023-04-23T19:43:06.800Z,100016.37
2023-04-23T19:45:41.021Z,100013.90
2023-04-23T19:49:09.172Z,100015.50
2023-04-23T19:52:17.047Z,100018.35
2023-04-23T19:54:45.908Z,100017.66
2023-04-23T19:57:29.466Z,100014.80
2023-04-23T19:59:58.512Z,100013.05
2023-04-23T20:02:30.305Z,100017.64
2023-04-23T20:05:19.147Z,100022.80
2023-04-23T20:08:07.481Z,100028.77
2023-04-23T20:11:15.235Z,100025.34
2023-04-23T20:14:04.406Z,100021.17
2023-04-23T20:17:32.278Z,100019.20
2023-04-23T20:20:22.409Z,100019.67
2023-04-23T20:23:31.414Z,100018.45
2023-04-23T20:26:59.419Z,100016.61
2023-04-23T20:30:27.236Z,100018.52
2023-04-23T20:33:46.939Z,100020.61
2023-04-23T20:36:35.786Z,100018.45
2023-04-23T20:40:03.734Z,100016.44
2023-04-23T20:43:12.996Z,100018.50
2023-04-23T20:46:40.929Z,100019.21
2023-04-23T20:50:08.833Z,100017.63
2023-04-23T20:53:17.545Z,100016.33
2023-04-23T20:56:07.774Z,100015.07
2023-04-23T20:58:56.788Z,100017.05
2023-04-23T21:02:04.596Z,100012.86
2023-04-23T21:05:32.563Z,100012.64
2023-04-23T21:08:25.365Z,100011.88
2023-04-23T21:11:24.565Z,100009.86
2023-04-23T21:14:53.317Z,100007.40
2023-04-23T21:18:02.928Z,100008.10
2023-04-23T21:25:02.861Z,100006.05
2023-04-23T21:28:30.816Z,100000.13
2023-04-23T21:31:39.621Z,99997.55
2023-04-23T21:35:04.509Z,99996.85
2023-04-23T21:38:32.362Z,99995.07
2023-04-23T21:41:44.802Z,99991.23
2023-04-23T21:45:12.552Z,99993.38
2023-04-23T21:48:42.000Z,99992.12
2023-04-23T21:52:09.917Z,99979.40
2023-04-23T21:55:38.357Z,99981.03
2023-04-23T21:59:05.999Z,99976.73
2023-04-23T22:01:54.874Z,99975.92
2023-04-23T22:05:23.036Z,99973.37
2023-04-23T22:08:50.844Z,99970.98
2023-04-23T22:12:18.548Z,99967.98
2023-04-23T22:15:46.459Z,99968.94
2023-04-23T22:19:14.507Z,99961.59
2023-04-23T22:22:42.299Z,99960.87
2023-04-23T22:26:11.307Z,99957.02
2023-04-23T22:29:40.275Z,99952.95
2023-04-23T22:33:08.033Z,99945.25
2023-04-23T22:36:35.818Z,99942.91
2023-04-23T22:40:03.770Z,99941.39
2023-04-23T22:43:31.524Z,99940.30
2023-04-23T22:47:01.565Z,99934.64
2023-04-23T22:49:51.404Z,99932.54
2023-04-23T22:52:59.544Z,99928.41
2023-04-23T22:56:27.559Z,99928.23
2023-04-23T22:59:36.152Z,99925.65
2023-04-23T23:03:04.203Z,99922.86
2023-04-23T23:06:32.030Z,99916.95
2023-04-23T23:09:39.833Z,99916.48
2023-04-23T23:13:07.637Z,99912.67
2023-04-23T23:16:35.474Z,99908.73
2023-04-23T23:20:03.457Z,99907.05
2023-04-23T23:23:31.226Z,99903.10
2023-04-23T23:26:59.192Z,99905.46
2023-04-23T23:30:11.519Z,99906.60
2023-04-23T23:33:20.507Z,99909.14
2023-04-23T23:36:48.506Z,99904.36
2023-04-23T23:40:16.479Z,99905.46
2023-04-23T23:43:44.353Z,99904.98
2023-04-23T23:47:12.315Z,99902.52
2023-04-23T23:50:28.064Z,99898.27
2023-04-23T23:53:56.001Z,99898.44
2023-04-23T23:57:25.062Z,99896.53
